Webcam op het Zuiden Meer informatie Webcam op het Zuiden


Webcam op het Westen Meer informatie Webcam op het Westen


Onweer radar Meer informatie blitzortung!


Regen radar  rain snow radar


Lokaal brand risico:
CBI


Regionaal brand risico: Meer informatie


Lokaal brand risico:
Gebaseerd op actuele waarde
CBI


Bezoek ook deze websites:

Template documentation
and downloads

And another site



Het weer levert geen direct gevaar op.    Er zijn geen waarschuwingen afgegeven.

METAR rapporten vliegvelden

   
ETWM - Meppen, Germany
Afstand tot: O 29 km
Gewijzigd: 20-07-2019 15:20
  
  
   Wind: Westen 9.3 km/h
Wind: Westen 9.3 km/h
Temperatuur: 19°C
Dauwpunt: 14°C
Vochtigheid: 73%
Barometer: 1011 hPa
Zicht: meer dan 10 km
ETWM 201320Z AUTO 27005KT 9999 // ////// 19/14 Q1011 ///
EHGG - Groningen/Eelde, Netherlands
Afstand tot: NNW 47 km
Gewijzigd: 20-07-2019 15:55
Gedeeltelijk bewolkt  
Gedeeltelijk bewolkt  
   Wind: Zuiden 13 km/h
Wind: Zuiden 13 km/h
Temperatuur: 19°C
Dauwpunt: 16°C
Vochtigheid: 83%
Barometer: 1009 hPa
Bewolking: Gedeeltelijk bewolkt
Zicht: meer dan 10 km
Bewolking: Gedeeltelijk bewolkt
EHGG 201355Z AUTO 17007KT 140V210 9999 NSC 19/16 Q1009 NOSIG
EDDG - Muenster/Osnabru, Germany
Afstand tot: ZO 87 km
Gewijzigd: 20-07-2019 15:50
Licht bewolkt  
Licht bewolkt  
   Wind: Noorden 16.7 km/h
Wind: Noorden 16.7 km/h
Temperatuur: 25°C
Dauwpunt: 12°C
Vochtigheid: 44%
Barometer: 1010 hPa
Bewolking: Licht bewolkt
Zicht: meer dan 10 km
Bewolking: Licht bewolkt 5000 ft
EDDG 201350Z 35009KT 320V030 9999 FEW050CB 25/12 Q1010 NOSIG
EHLW - Leeuwarden Rnlaf, Netherlands
Afstand tot: NW 93 km
Gewijzigd: 20-07-2019 16:00
Grotendeels bewolkt  
Grotendeels bewolkt  
   Wind: ZZW 22.2 km/h
Wind: ZZW 22.2 km/h
Temperatuur: 21°C
Dauwpunt: 17°C
Vochtigheid: 78%
Barometer: 1009 hPa
Bewolking: Grotendeels bewolkt
Zicht: meer dan 10 km
Bewolking: Licht bewolkt 1900 ft,
Gedeeltelijk bewolkt 3700 ft,
Grotendeels bewolkt 4100 ft
EHLW 201400Z AUTO 20012KT 160V240 9999 FEW019 SCT037 BKN041 21/17 Q1009 BLU
ETNT - Wittmundhaven(Ga, Germany
Afstand tot: NNO 100 km
Gewijzigd: 20-07-2019 15:20
Wat regen mogelijk, Grotendeels bewolkt  
Wat regen mogelijk, Grotendeels bewolkt  
   Wind: Zuiden 9.3 km/h
Wind: Zuiden 9.3 km/h
Temperatuur: 19°C
Dauwpunt: 16°C
Vochtigheid: 83%
Barometer: 1009 hPa
Bewolking: Grotendeels bewolkt
Zicht: meer dan 10 km
Bewolking: Licht bewolkt 3000 ft,
Grotendeels bewolkt 9000 ft,
Grotendeels bewolkt 11000 ft
ETNT 201320Z 17005KT 9999 -RA FEW030 BKN090 BKN110 19/16 Q1009 BLU
ETND - Diepholz (ger-Af, Germany
Afstand tot: O 104 km
Gewijzigd: 19-07-2019 11:20
Verouderd
Grotendeels bewolkt  
Grotendeels bewolkt  
   Wind: Westen 11.1 km/h
Wind: Westen 11.1 km/h
Temperatuur: 22°C
Dauwpunt: 12°C
Vochtigheid: 53%
Barometer: 1013 hPa
Bewolking: Grotendeels bewolkt
Zicht: meer dan 10 km
Bewolking: Grotendeels bewolkt 2900 ft,
Gedeeltelijk bewolkt 23000 ft
ETND 190920Z 27006KT 9999 BKN029 SCT230 22/12 Q1013 BLU
ETNT - Wittmundhaven(Ga, Germany
Afstand tot: NNO 102 km
Gewijzigd: 20-07-2019 15:20
Wat regen mogelijk, Grotendeels bewolkt  
Wat regen mogelijk, Grotendeels bewolkt  
   Wind: Zuiden 9.3 km/h
Wind: Zuiden 9.3 km/h
Temperatuur: 19°C
Dauwpunt: 16°C
Vochtigheid: 83%
Barometer: 1009 hPa
Bewolking: Grotendeels bewolkt
Zicht: meer dan 10 km
Bewolking: Licht bewolkt 3000 ft,
Grotendeels bewolkt 9000 ft,
Grotendeels bewolkt 11000 ft
ETNT 201320Z 17005KT 9999 -RA FEW030 BKN090 BKN110 19/16 Q1009 BLU
EHDL - Deelen Rnlafb, Netherlands
Afstand tot: ZW 103 km
Gewijzigd: 20-07-2019 15:55
Bewolking  
Bewolking  
   Wind: Zuiden 5.6 km/h
Wind: Zuiden 5.6 km/h
Temperatuur: 21°C
Dauwpunt: 17°C
Vochtigheid: 78%
Barometer: 1010 hPa
Bewolking: Bewolking
Zicht: meer dan 10 km
Bewolking: Licht bewolkt 4200 ft,
Gedeeltelijk bewolkt 5500 ft,
Bewolking 25000 ft
EHDL 201355Z AUTO 17003KT 110V260 9999 FEW042 SCT055 OVC250 21/17 Q1010 BLU
EHMA - Awg-1 Sea, Netherlands
Afstand tot: NW 105 km
Gewijzigd: 20-07-2019 15:55
Gedeeltelijk bewolkt  
Gedeeltelijk bewolkt  
   Wind: ZZW 25.9 km/h
Wind: ZZW 25.9 km/h
Temperatuur: 21°C
Dauwpunt: 16°C
Vochtigheid: 73%
Barometer: 1009 hPa
Bewolking: Gedeeltelijk bewolkt
Bewolking: Licht bewolkt 1700 ft,
Gedeeltelijk bewolkt 2800 ft
EHMA 201355Z AUTO 21014KT //// // FEW017 SCT028 21/16 Q1009 RE// W///H///
EDDW - Bremen, Germany
Afstand tot: ONO 135 km
Gewijzigd: 20-07-2019 15:50
Light Thunderstorm, Regen, Gedeeltelijk bewolkt  
Light Thunderstorm, Regen, Gedeeltelijk bewolkt  
   Wind: Westen 13 km/h
Wind: Westen 13 km/h
Temperatuur: 19°C
Dauwpunt: 16°C
Vochtigheid: 83%
Barometer: 1011 hPa
Bewolking: Gedeeltelijk bewolkt
Zicht: meer dan 10 km
Bewolking: Licht bewolkt 1600 ft,
Gedeeltelijk bewolkt 3200 ft
EDDW 201350Z 28007KT 9999 -TSRA FEW016 SCT032CB 19/16 Q1011 RESHRA NOSIG
EHVL - Vlieland Island, Netherlands
Afstand tot: WNW 138 km
Gewijzigd: 20-07-2019 15:59
Bewolking  
Bewolking  
   Wind: ZZW 37 km/h
Wind: ZZW 37 km/h
Temperatuur: 20°C
Dauwpunt: 17°C
Vochtigheid: 83%
Barometer: 1008 hPa
Bewolking: Bewolking
Zicht: meer dan 10 km
Bewolking: Grotendeels bewolkt 1600 ft,
Bewolking 3000 ft
EHVL 201359Z AUTO 21020KT 9999 BKN016 OVC030 20/17 Q1008 WHT
EDLV - Niederrhein, Germany
Afstand tot: ZZW 139 km
Gewijzigd: 20-07-2019 15:50
Nearby Thunderstorm, Grotendeels bewolkt  
Nearby Thunderstorm, Grotendeels bewolkt  
   Wind: ZW 14.8 km/h
Wind: ZW 14.8 km/h
Temperatuur: 26°C
Dauwpunt: 15°C
Vochtigheid: 51%
Barometer: 1009 hPa
Bewolking: Grotendeels bewolkt
Zicht: meer dan 10 km
Bewolking: Grotendeels bewolkt 5200 ft
EDLV 201350Z 23008KT 180V250 9999 VCTS BKN052CB 26/15 Q1009
EHKD - De Kooy (navy), Netherlands
Afstand tot: W 144 km
Gewijzigd: 20-07-2019 15:55
Bewolking  
Bewolking  
   Wind: ZZW 29.6 km/h
Wind: ZZW 29.6 km/h
Temperatuur: 21°C
Dauwpunt: 17°C
Vochtigheid: 78%
Barometer: 1008 hPa
Bewolking: Bewolking
Zicht: meer dan 10 km
Bewolking: Gedeeltelijk bewolkt 1800 ft,
Grotendeels bewolkt 2200 ft,
Bewolking 3000 ft
EHKD 201355Z AUTO 21016KT 180V240 9999 SCT018 BKN022 OVC030 21/17 Q1008 RERA WHT 20012KT CAVOK TEMPO 21015G25KT 4000 SHRA SCT012 SCT030CB BKN040
EDLW - Dortmund/Wickede, Germany
Afstand tot: ZZO 150 km
Gewijzigd: 20-07-2019 15:50
Light Showers, Regen, Licht bewolkt  
Light Showers, Regen, Licht bewolkt  
   Wind: varieert 5.6 km/h
Wind: varieert 5.6 km/h
Temperatuur: 25°C
Dauwpunt: 20°C
Vochtigheid: 74%
Barometer: 1010 hPa
Bewolking: Licht bewolkt
Zicht: meer dan 10 km
Bewolking: Licht bewolkt 800 ft
EDLW 201350Z VRB03KT 9999 -SHRA FEW008 25/20 Q1010
EHVK - Volkel Rnlafb, Netherlands
Afstand tot: ZZW 149 km
Gewijzigd: 20-07-2019 16:02
Onweer, Regen, Grotendeels bewolkt  
Onweer, Regen, Grotendeels bewolkt  
   Wind: varieert 20.4 km/h<br />Gust to 20.4 km/h
Wind: varieert 20.4 km/h
Gust to 20.4 km/h
Temperatuur: 19°C
Dauwpunt: 18°C
Vochtigheid: 94%
Barometer: 1010 hPa
Bewolking: Grotendeels bewolkt
Zicht: meer dan 10 km
Bewolking: Licht bewolkt,
Gedeeltelijk bewolkt 500 ft,
Licht bewolkt 1500 ft,
Grotendeels bewolkt 2100 ft
EHVK 201402Z AUTO VRB11G29KT 9999 R24R/1700D TSRA FEW000/// SCT005/// FEW015CB BKN021 19/18 Q1010 YLO
EDLW - Dortmund/Wickede, Germany
Afstand tot: ZZO 150 km
Gewijzigd: 20-07-2019 15:50
Light Showers, Regen, Licht bewolkt  
Light Showers, Regen, Licht bewolkt  
   Wind: varieert 5.6 km/h
Wind: varieert 5.6 km/h
Temperatuur: 25°C
Dauwpunt: 20°C
Vochtigheid: 74%
Barometer: 1010 hPa
Bewolking: Licht bewolkt
Zicht: meer dan 10 km
Bewolking: Licht bewolkt 800 ft
EDLW 201350Z VRB03KT 9999 -SHRA FEW008 25/20 Q1010
EHMG - L9-Ff-1 Sea, Netherlands
Afstand tot: NW 155 km
Gewijzigd: 20-07-2019 14:25
Verouderd
Gedeeltelijk bewolkt  
Gedeeltelijk bewolkt  
   Wind: ZZW 44.4 km/h
Wind: ZZW 44.4 km/h
Temperatuur: 18°C
Dauwpunt: 17°C
Vochtigheid: 94%
Barometer: 1009 hPa
Bewolking: Gedeeltelijk bewolkt
Zicht: meer dan 10 km
Bewolking: Licht bewolkt 1200 ft,
Gedeeltelijk bewolkt 1400 ft
EHMG 201225Z AUTO 20024KT 9999 FEW012 SCT014 18/17 Q1009 W///H///
ETHB - Buckeburg(Ger-Ar, Germany
Afstand tot: OZO 161 km
Gewijzigd: 20-07-2019 15:20
  
  
   Wind: Zuiden 22.2 km/h
Wind: Zuiden 22.2 km/h
Temperatuur: 28°C
Gevoelstemperatuur: 28°C
Dauwpunt: 15°C
Vochtigheid: 45%
Barometer: 1009 hPa
Zicht: 5 km
ETHB 201320Z AUTO 19012KT 4800 // ////// 28/15 Q1009 ///
ETMN - Nordholz (ger-Na, Germany
Afstand tot: NO 164 km
Gewijzigd: 20-07-2019 16:01
Light Showers, Regen, Grotendeels bewolkt  
Light Showers, Regen, Grotendeels bewolkt  
   Wind: Westen 9.3 km/h
Wind: Westen 9.3 km/h
Temperatuur: 19°C
Dauwpunt: 17°C
Vochtigheid: 88%
Barometer: 1010 hPa
Bewolking: Grotendeels bewolkt
Zicht: 5 km
Bewolking: Gedeeltelijk bewolkt 4000 ft,
Grotendeels bewolkt 7000 ft
ETMN 201401Z 26005KT 5000 -SHRA SCT040CB BKN070 19/17 Q1010 RETSRA WHT
EDDL - Duesseldorf, Germany
Afstand tot: Z 165 km
Gewijzigd: 20-07-2019 15:50
Light Showers, Regen, Gedeeltelijk bewolkt  
Light Showers, Regen, Gedeeltelijk bewolkt  
   Wind: Noorden 11.1 km/h
Wind: Noorden 11.1 km/h
Temperatuur: 20°C
Dauwpunt: 16°C
Vochtigheid: 78%
Barometer: 1009 hPa
Bewolking: Gedeeltelijk bewolkt
Zicht: meer dan 10 km
Bewolking: Licht bewolkt 2500 ft,
Gedeeltelijk bewolkt 5000 ft
EDDL 201350Z 35006KT 320V020 9999 -SHRA FEW025CB SCT050TCU 20/16 Q1009 RETSRA TEMPO 30025G40KT TSRA
EDLN - Monchengladbach, Germany
Afstand tot: Z 174 km
Gewijzigd: 20-07-2019 15:50
  
  
   Wind: varieert 3.7 km/h
Wind: varieert 3.7 km/h
Zicht: meer dan 10 km
EDLN 201350Z VRB02KT 9999 - RA SCT060CB 18/17 Q1010

Script ontwikkeld door  Saratoga-weather.org Aangepast voor de template door  Weerstation Leuven

U vindt ons ook hier:

Het Weer Aktueel

European Weather Network

Weather Underground

Wetterpage 24

Apparatuur in gebruik:

Weerstation
Davis VP2

Weerprogramma
Meteohub

Hardware
RaspberryPI, Wireless Weather Envoy, MeteoStick, TP-Link MR3020

Leverancier
Weerhuisje.nl weerstations

Davis VP2

Meteohub

RaspberryPI, Wireless Weather Envoy, MeteoStick, TP-Link MR3020

Weerhuisje.nl weerstations